首页
METAR-TAF:

METAR-TAF

机场 :

普羅維登西亞萊斯國際機場

Providenciales, 特克斯和凯科斯群岛

纬度: 21-46-25N, 经度: 072-15-57W, 海拔: 5米

当前天气观测

该预报发布于1小时和6分钟前的22:00 UTC
风速5节,风向东南
温度 30°C
湿度 70%
气压 1015 hPa
能见度10公里或以上
散云层高于1500英尺, 积雨云.

METAR: MBPV 282200Z 13005KT 9999 SCT015CB 30/24 Q1015

时间: 19:06 (23:06 UTC)

预报

该预报发布于29小时和7分钟前的17:59 UTC
预报有效从28日的 18点(UTC)到 29日的 18点(UTC)
风速9节,风向
能見度: 9000
散云层高于1800英尺, 积雨云.
散云层高于2500英尺
多云层高于25000英尺
阵雨, 附近有雷暴
几率 30% :
短暂存在
从 29日的 00点(UTC)到 29日的 06点(UTC)
能見度: 7000
多云层高于1500英尺, 积雨云.
多云层高于2000英尺
雷暴, 雨,

TAF: MBPV 271759Z 2818/2918 10009KT 9000 SHRA VCTS SCT018CB SCT025 BKN250 PROB30 TEMPO 2900/2906 7000 TSRA BKN015CB BKN020

超过4000个机场的气象观测和天气预报(METAR&TAF报告)。

可查询的气象台以黄色和红色小点在地图上表示。

将鼠标移到小点上方,可查看气象台名称。

然后点击查看天气观测和预报。

如需切换地图:点击带黑十字的绿色按钮放大地图;点击带横线的绿色按钮缩小地图;或者点击绿色箭头查看邻近地区的地图。


METAR-TAF: